Time;durP1;ratioP1;P1;durP2;ratioP2;P2;SDS_P1;SDS_P2;PMS_P1;PMS_P2;Temp;Humidity;BMP_temperature;BMP_pressure;BME280_temperature;BME280_humidity;BME280_pressure;Samples;Min_cycle;Max_cycle;Signal;HPM_P1;HPM_P2
2023/01/01 00:00:10;;;;;;;;;;;13.20;99.90;;;;;;5054042;28;20057;-62
2023/01/01 00:02:36;;;;;;;12.57;2.63;;;13.20;99.90;;;;;;5046346;28;19921;-63
2023/01/01 00:05:02;;;;;;;;;;;13.10;99.90;;;;;;5054613;28;20112;-62
2023/01/01 00:07:28;;;;;;;12.38;2.80;;;13.10;99.90;;;;;;5055184;28;19931;-62
2023/01/01 00:12:38;;;;;;;10.43;2.35;;;13.10;99.90;;;;;;5054524;28;20340;-62
2023/01/01 00:15:03;;;;;;;;;;;13.20;99.90;;;;;;5053741;28;20716;-62
2023/01/01 00:17:29;;;;;;;19.52;4.95;;;13.20;99.90;;;;;;5044102;28;19920;-63
2023/01/01 00:19:55;;;;;;;;;;;13.20;99.90;;;;;;5044445;28;20080;-63
2023/01/01 00:22:20;;;;;;;15.77;2.72;;;13.10;99.90;;;;;;5037708;28;19931;-63
2023/01/01 00:24:46;;;;;;;10.52;2.80;;;13.20;99.90;;;;;;5046657;28;20106;-62
2023/01/01 00:27:11;;;;;;;;;;;13.20;99.90;;;;;;5041431;28;20066;-62
2023/01/01 00:29:38;;;;;;;14.55;2.90;;;13.20;99.90;;;;;;5044945;28;19924;-62
2023/01/01 00:32:04;;;;;;;15.73;3.67;;;13.20;99.90;;;;;;5039431;28;20086;-63
2023/01/01 00:34:29;;;;;;;;;;;13.20;99.90;;;;;;5038954;28;20041;-63
2023/01/01 00:36:56;;;;;;;17.40;3.25;;;13.20;99.80;;;;;;5038667;28;19927;-62
2023/01/01 00:39:22;;;;;;;21.55;4.30;;;13.10;99.70;;;;;;5044152;28;20374;-61
2023/01/01 00:41:47;;;;;;;;;;;13.20;99.50;;;;;;5041034;28;20036;-63
2023/01/01 00:44:13;;;;;;;18.83;3.80;;;13.20;99.50;;;;;;5042444;28;19923;-62
2023/01/01 00:46:38;;;;;;;;;;;13.20;99.40;;;;;;5046020;28;20104;-62
2023/01/01 00:49:04;;;;;;;14.15;3.90;;;13.10;99.10;;;;;;5046340;28;19923;-63
2023/01/01 00:51:30;;;;;;;16.27;3.20;;;13.10;99.30;;;;;;5040281;28;20103;-62
2023/01/01 00:53:55;;;;;;;;;;;13.20;99.10;;;;;;5039923;28;20029;-62
2023/01/01 00:56:21;;;;;;;17.48;3.70;;;13.20;99.00;;;;;;5034367;28;20297;-63
2023/01/01 00:58:46;;;;;;;;;;;13.10;99.00;;;;;;5044791;28;20620;-62
2023/01/01 01:01:12;;;;;;;16.30;3.80;;;13.10;98.90;;;;;;5038550;28;19928;-62
2023/01/01 01:03:38;;;;;;;;;;;13.10;99.00;;;;;;5042635;28;20045;-62
2023/01/01 01:06:03;;;;;;;14.15;2.97;;;13.10;99.00;;;;;;5035007;28;19921;-63
2023/01/01 01:08:32;;;;;;;;;;;13.00;98.90;;;;;;5044270;28;20060;-62
2023/01/01 01:11:13;;;;;;;13.25;3.33;;;13.00;98.90;;;;;;5041923;28;19943;-62
2023/01/01 01:13:41;;;;;;;17.02;3.60;;;13.00;98.30;;;;;;5043645;28;21284;-63
2023/01/01 01:16:09;;;;;;;12.98;3.15;;;13.00;98.70;;;;;;5040375;28;20064;-62
2023/01/01 01:18:35;;;;;;;13.80;3.90;;;12.90;99.00;;;;;;5045324;28;20075;-63
2023/01/01 01:21:00;;;;;;;;;;;12.90;98.80;;;;;;5042620;28;20044;-62
2023/01/01 01:23:26;;;;;;;13.07;3.05;;;12.80;99.00;;;;;;5041987;28;19912;-63
2023/01/01 01:25:51;;;;;;;10.93;3.50;;;12.80;98.80;;;;;;5042527;28;20783;-63
2023/01/01 01:28:17;;;;;;;12.35;2.90;;;12.80;98.60;;;;;;5042102;28;20064;-63
2023/01/01 01:30:43;;;;;;;;;;;12.70;98.60;;;;;;5042001;28;20124;-62
2023/01/01 01:33:08;;;;;;;9.10;2.67;;;12.70;98.60;;;;;;5038293;28;19975;-63
2023/01/01 01:35:39;;;;;;;6.25;2.20;;;12.70;98.80;;;;;;5040379;28;20783;-63
2023/01/01 01:38:05;;;;;;;;;;;12.60;98.90;;;;;;5039708;28;20108;-63
2023/01/01 01:40:32;;;;;;;15.13;2.45;;;12.50;99.00;;;;;;5041448;28;19960;-63
2023/01/01 01:42:57;;;;;;;13.45;3.58;;;12.60;98.80;;;;;;5039536;28;20029;-63
2023/01/01 01:45:23;;;;;;;;;;;12.40;99.20;;;;;;5039125;28;20144;-63
2023/01/01 01:47:57;;;;;;;8.35;2.90;;;12.30;99.20;;;;;;5037232;28;20005;-63
2023/01/01 01:50:33;;;;;;;9.38;2.83;;;12.30;99.40;;;;;;5039159;28;20033;-62
2023/01/01 01:53:13;;;;;;;6.05;2.40;;;12.20;99.00;;;;;;5040696;28;20500;-62
2023/01/01 01:55:45;;;;;;;6.70;2.00;;;12.20;99.60;;;;;;5043205;28;20118;-62
2023/01/01 01:58:13;;;;;;;11.60;2.60;;;12.20;99.60;;;;;;5040278;28;20516;-61
2023/01/01 02:00:38;;;;;;;8.25;2.50;;;12.20;99.50;;;;;;5042536;28;20034;-63
2023/01/01 02:03:06;;;;;;;;;;;12.10;99.70;;;;;;5039362;28;20040;-65
2023/01/01 02:05:33;;;;;;;9.38;2.70;;;12.10;99.70;;;;;;5040980;28;19932;-63
2023/01/01 02:08:00;;;;;;;13.20;2.22;;;12.00;99.90;;;;;;5037772;28;20037;-63
2023/01/01 02:10:27;;;;;;;10.70;3.08;;;12.00;99.80;;;;;;5042915;28;20528;-62
2023/01/01 02:12:53;;;;;;;7.18;2.05;;;12.00;99.90;;;;;;5038072;28;20040;-62
2023/01/01 02:15:19;;;;;;;;;;;12.10;99.60;;;;;;5039831;28;20453;-63
2023/01/01 02:17:59;;;;;;;5.53;2.42;;;12.10;99.40;;;;;;5041177;28;20002;-61
2023/01/01 02:20:47;;;;;;;4.18;2.20;;;12.00;99.20;;;;;;5042688;28;20060;-62
2023/01/01 02:23:48;;;;;;;5.25;2.58;;;12.10;99.40;;;;;;5039533;28;20025;-63
2023/01/01 02:26:44;;;;;;;7.82;2.03;;;12.10;99.30;;;;;;5029638;28;20045;-64
2023/01/01 02:29:14;;;;;;;8.88;2.67;;;12.10;98.90;;;;;;5035623;28;20037;-62
2023/01/01 02:31:47;;;;;;;8.38;1.95;;;12.10;98.80;;;;;;5034383;28;20128;-62
2023/01/01 02:34:17;;;;;;;15.90;3.72;;;12.10;98.50;;;;;;5039663;28;20568;-63
2023/01/01 02:36:48;;;;;;;7.75;2.47;;;12.10;98.70;;;;;;5029992;28;20051;-63
2023/01/01 02:39:18;;;;;;;6.70;2.38;;;12.10;98.60;;;;;;5039376;28;20037;-62
2023/01/01 02:41:47;;;;;;;8.05;2.67;;;12.10;98.10;;;;;;5040245;28;20041;-63
2023/01/01 02:44:14;;;;;;;4.75;2.10;;;12.10;98.10;;;;;;5040975;28;20036;-63
2023/01/01 02:46:39;;;;;;;9.90;2.22;;;12.10;98.10;;;;;;5039247;28;20118;-62
2023/01/01 02:49:05;;;;;;;;;;;12.10;98.60;;;;;;5039481;28;20516;-63
2023/01/01 02:52:04;;;;;;;6.88;2.13;;;12.10;98.10;;;;;;5036332;28;19920;-62
2023/01/01 02:54:42;;;;;;;5.65;2.17;;;12.10;98.20;;;;;;5040558;28;20520;-63
2023/01/01 02:57:11;;;;;;;13.85;2.50;;;12.10;97.90;;;;;;5041914;28;20048;-63
2023/01/01 03:02:41;;;;;;;20.52;2.30;;;12.00;98.60;;;;;;5038411;28;20045;-63
2023/01/01 03:05:15;;;;;;;8.82;2.03;;;12.00;98.50;;;;;;5029802;28;20132;-63
2023/01/01 03:07:58;;;;;;;7.63;1.90;;;11.90;98.70;;;;;;5040768;28;20100;-61
2023/01/01 03:11:06;;;;;;;22.05;2.95;;;11.90;98.80;;;;;;5041450;28;20094;-63
2023/01/01 03:13:47;;;;;;;8.85;2.50;;;11.80;99.10;;;;;;5041145;28;20044;-63
2023/01/01 03:16:16;;;;;;;9.32;2.00;;;11.80;99.00;;;;;;5032375;28;20045;-62
2023/01/01 03:19:09;;;;;;;6.65;2.60;;;11.80;99.50;;;;;;5044190;28;20049;-62
2023/01/01 03:21:42;;;;;;;4.45;1.95;;;11.70;99.80;;;;;;5038842;28;20076;-63
2023/01/01 03:24:33;;;;;;;8.13;2.47;;;11.70;99.50;;;;;;5042830;28;20572;-63
2023/01/01 03:27:07;;;;;;;8.73;2.25;;;11.80;99.60;;;;;;5037552;28;20051;-63
2023/01/01 03:29:38;;;;;;;9.98;2.05;;;11.70;99.70;;;;;;5042328;28;20045;-63
2023/01/01 03:32:09;;;;;;;8.20;2.47;;;11.70;99.90;;;;;;5035615;28;20033;-64
2023/01/01 03:34:40;;;;;;;12.52;3.38;;;11.60;99.90;;;;;;5042614;28;20045;-63
2023/01/01 03:37:11;;;;;;;12.45;2.53;;;11.60;99.90;;;;;;5033473;28;20112;-62
2023/01/01 03:39:50;;;;;;;7.55;2.30;;;11.60;99.90;;;;;;5041422;28;20079;-63
2023/01/01 03:42:37;;;;;;;8.68;2.55;;;11.50;99.90;;;;;;5034462;28;20132;-63
2023/01/01 03:45:21;;;;;;;7.05;2.72;;;11.50;99.90;;;;;;5039723;28;20055;-63
2023/01/01 03:47:47;;;;;;;7.63;2.55;;;11.50;99.90;;;;;;5037477;28;20058;-62
2023/01/01 03:50:13;;;;;;;10.57;3.25;;;11.50;99.90;;;;;;5043441;28;20040;-63
2023/01/01 03:52:48;;;;;;;8.38;1.92;;;11.50;99.90;;;;;;5043100;28;20552;-62
2023/01/01 03:55:35;;;;;;;10.93;2.50;;;11.50;99.90;;;;;;5046127;28;20052;-63
2023/01/01 03:58:27;;;;;;;8.65;2.20;;;11.50;99.90;;;;;;5044736;28;20673;-62
2023/01/01 04:01:00;;;;;;;9.50;2.72;;;11.40;99.90;;;;;;5035609;28;20043;-63
2023/01/01 04:03:28;;;;;;;6.90;2.00;;;11.40;99.90;;;;;;5044634;28;20037;-60
2023/01/01 04:05:54;;;;;;;9.32;3.03;;;11.40;99.90;;;;;;5040708;28;20045;-62
2023/01/01 04:08:19;;;;;;;;;;;11.30;99.90;;;;;;5044796;28;20603;-62
2023/01/01 04:10:51;;;;;;;10.23;2.75;;;11.40;99.90;;;;;;5041504;28;19920;-63
2023/01/01 04:13:17;;;;;;;6.32;1.90;;;11.30;99.90;;;;;;5040503;28;20067;-63
2023/01/01 04:15:42;;;;;;;;;;;11.30;99.90;;;;;;5039906;28;20041;-62
2023/01/01 04:18:08;;;;;;;7.80;2.55;;;11.30;99.90;;;;;;5041598;28;20352;-62
2023/01/01 04:20:34;;;;;;;;;;;11.40;99.90;;;;;;5046529;28;20610;-62
2023/01/01 04:23:00;;;;;;;7.80;2.38;;;11.40;99.90;;;;;;5041778;28;20301;-62
2023/01/01 04:25:27;;;;;;;11.68;2.50;;;11.40;99.90;;;;;;5041174;28;20041;-62
2023/01/01 04:27:53;;;;;;;5.90;2.42;;;11.40;99.90;;;;;;5042006;28;20044;-62
2023/01/01 04:30:18;;;;;;;;;;;11.40;99.90;;;;;;5045608;28;20058;-62
2023/01/01 04:32:45;;;;;;;7.25;2.00;;;11.40;99.90;;;;;;5041000;28;19921;-62
2023/01/01 04:35:12;;;;;;;10.85;2.72;;;11.30;99.90;;;;;;5037462;28;20570;-64
2023/01/01 04:37:39;;;;;;;8.43;2.30;;;11.30;99.90;;;;;;5040632;28;20494;-62
2023/01/01 04:40:06;;;;;;;5.35;1.90;;;11.30;99.90;;;;;;5044645;28;20036;-62
2023/01/01 04:42:32;;;;;;;7.85;2.03;;;11.30;99.90;;;;;;5038390;28;20066;-62
2023/01/01 04:44:57;;;;;;;;;;;11.30;99.90;;;;;;5045381;28;20300;-62
2023/01/01 04:47:23;;;;;;;5.55;2.25;;;11.30;99.90;;;;;;5040735;28;19921;-62
2023/01/01 04:49:48;;;;;;;9.77;2.65;;;11.30;99.90;;;;;;5047002;28;20036;-63
2023/01/01 04:52:14;;;;;;;;;;;11.30;99.90;;;;;;5040320;28;20374;-63
2023/01/01 04:54:40;;;;;;;6.90;2.40;;;11.30;99.90;;;;;;5045790;28;20452;-62
2023/01/01 04:57:05;;;;;;;;;;;11.30;99.90;;;;;;5041564;28;20111;-63
2023/01/01 04:59:31;;;;;;;11.15;2.38;;;11.40;99.90;;;;;;5042254;28;19999;-62
2023/01/01 05:01:56;;;;;;;;;;;11.40;99.90;;;;;;5038746;28;20033;-62
2023/01/01 05:04:22;;;;;;;10.63;2.30;;;11.40;99.90;;;;;;5045223;28;19974;-62
2023/01/01 05:06:47;;;;;;;;;;;11.40;99.90;;;;;;5034858;28;20040;-63
2023/01/01 05:09:13;;;;;;;6.20;2.10;;;11.40;99.90;;;;;;5044806;28;20387;-61
2023/01/01 05:11:39;;;;;;;;;;;11.40;99.90;;;;;;5039905;28;20187;-63
2023/01/01 05:14:05;;;;;;;6.70;1.90;;;11.40;99.90;;;;;;5042469;28;19916;-63
2023/01/01 05:16:34;;;;;;;5.75;2.00;;;11.40;99.90;;;;;;5037040;28;20045;-62
2023/01/01 05:19:00;;;;;;;7.43;2.10;;;11.40;99.90;;;;;;5043242;28;20033;-63
2023/01/01 05:21:33;;;;;;;;;;;11.40;99.90;;;;;;5040230;28;20048;-63
2023/01/01 05:24:01;;;;;;;6.60;2.05;;;11.30;99.90;;;;;;5044505;28;19926;-63
2023/01/01 05:26:32;;;;;;;5.10;2.20;;;11.30;99.90;;;;;;5038499;28;20763;-63
2023/01/01 05:28:59;;;;;;;5.88;1.80;;;11.30;99.90;;;;;;5046274;28;20029;-63
2023/01/01 05:31:31;;;;;;;9.02;2.83;;;11.30;99.90;;;;;;5040437;28;20041;-63
2023/01/01 05:33:57;;;;;;;8.52;2.42;;;11.30;99.90;;;;;;5025616;28;20033;-63
2023/01/01 05:36:37;;;;;;;6.28;1.58;;;11.30;99.90;;;;;;5031457;28;20048;-64
2023/01/01 05:39:06;;;;;;;5.22;1.92;;;11.30;99.90;;;;;;5041177;28;20028;-63
2023/01/01 05:41:35;;;;;;;7.78;1.80;;;11.30;99.90;;;;;;5038211;28;20036;-63
2023/01/01 05:44:02;;;;;;;9.52;1.95;;;11.40;99.90;;;;;;5043088;28;20044;-63
2023/01/01 05:46:27;;;;;;;8.50;1.98;;;11.30;99.90;;;;;;5038876;28;20044;-64
2023/01/01 05:48:53;;;;;;;;;;;11.30;99.90;;;;;;5045646;28;20602;-62
2023/01/01 05:51:22;;;;;;;8.10;2.00;;;11.30;99.90;;;;;;5044206;28;20463;-63
2023/01/01 05:53:47;;;;;;;11.93;2.03;;;11.30;99.90;;;;;;5035496;28;20062;-64
2023/01/01 05:56:14;;;;;;;;;;;11.30;99.90;;;;;;5039806;28;20045;-64
2023/01/01 05:58:40;;;;;;;8.30;2.47;;;11.30;99.90;;;;;;5041395;28;19917;-63
2023/01/01 06:01:08;;;;;;;7.72;2.00;;;11.30;99.90;;;;;;5039157;28;20704;-64
2023/01/01 06:03:33;;;;;;;9.45;1.90;;;11.30;99.90;;;;;;5040801;28;20134;-64
2023/01/01 06:06:02;;;;;;;;;;;11.30;99.90;;;;;;5033130;28;20508;-64
2023/01/01 06:08:28;;;;;;;5.57;2.35;;;11.30;99.90;;;;;;5041466;28;19920;-64
2023/01/01 06:10:57;;;;;;;;;;;11.20;99.90;;;;;;5040777;28;20052;-62
2023/01/01 06:13:23;;;;;;;5.45;1.95;;;11.20;99.90;;;;;;5041364;28;20350;-63
2023/01/01 06:15:52;;;;;;;;;;;11.30;99.90;;;;;;5035292;28;20833;-63
2023/01/01 06:18:17;;;;;;;6.70;1.88;;;11.30;99.90;;;;;;5035491;28;19920;-64
2023/01/01 06:20:43;;;;;;;;;;;11.20;99.90;;;;;;5041653;28;20028;-62
2023/01/01 06:23:08;;;;;;;8.88;2.10;;;11.20;99.90;;;;;;5043830;28;19917;-62
2023/01/01 06:25:34;;;;;;;;;;;11.20;99.90;;;;;;5043571;28;20043;-64
2023/01/01 06:27:59;;;;;;;8.18;1.90;;;11.20;99.90;;;;;;5042451;28;19916;-63
2023/01/01 06:30:25;;;;;;;;;;;11.20;99.90;;;;;;5041210;28;20175;-63
2023/01/01 06:32:52;;;;;;;8.10;1.80;;;11.10;99.90;;;;;;5039677;28;19982;-64
2023/01/01 06:35:17;;;;;;;8.27;2.10;;;11.10;99.90;;;;;;5033641;28;20053;-63
2023/01/01 06:37:43;;;;;;;;;;;11.10;99.90;;;;;;5037989;28;20085;-63
2023/01/01 06:40:09;;;;;;;4.35;1.63;;;11.10;99.90;;;;;;5042103;28;19951;-63
2023/01/01 06:42:35;;;;;;;4.75;1.60;;;11.00;99.90;;;;;;5040761;28;20071;-64
2023/01/01 06:45:00;;;;;;;;;;;11.00;99.90;;;;;;5044977;28;20029;-63
2023/01/01 06:47:26;;;;;;;5.55;1.60;;;11.00;99.90;;;;;;5040216;28;19925;-64
2023/01/01 06:49:51;;;;;;;;;;;11.10;99.90;;;;;;5043531;28;20041;-63
2023/01/01 06:52:17;;;;;;;5.00;1.60;;;11.10;99.90;;;;;;5041165;28;19921;-64
2023/01/01 06:54:42;;;;;;;15.38;1.95;;;11.10;99.90;;;;;;5033331;28;20484;-63
2023/01/01 06:57:08;;;;;;;;;;;11.10;99.90;;;;;;5029666;28;20037;-63
2023/01/01 06:59:33;;;;;;;11.43;3.15;;;11.10;99.90;;;;;;5034708;28;20004;-63
2023/01/01 07:01:59;;;;;;;;;;;11.10;99.90;;;;;;5038487;28;20025;-63
2023/01/01 07:04:24;;;;;;;7.00;2.17;;;11.10;99.90;;;;;;5040621;28;19971;-63
2023/01/01 07:06:50;;;;;;;8.65;1.83;;;11.20;99.90;;;;;;5037000;28;20090;-65
2023/01/01 07:09:16;;;;;;;;;;;11.20;99.90;;;;;;5043376;28;20056;-60
2023/01/01 07:11:41;;;;;;;9.00;1.73;;;11.20;99.90;;;;;;5041803;28;19963;-63
2023/01/01 07:14:07;;;;;;;;;;;11.20;99.90;;;;;;5043948;28;20041;-63
2023/01/01 07:16:32;;;;;;;7.55;3.00;;;11.20;99.90;;;;;;5039201;28;20011;-63
2023/01/01 07:19:00;;;;;;;;;;;11.20;99.90;;;;;;5044332;28;20637;-62
2023/01/01 07:21:37;;;;;;;4.47;1.60;;;11.20;99.90;;;;;;5039705;28;19917;-63
2023/01/01 07:24:04;;;;;;;3.13;1.33;;;11.20;99.90;;;;;;5039609;28;20044;-63
2023/01/01 07:26:31;;;;;;;5.93;2.55;;;11.20;99.90;;;;;;5035346;28;20076;-63
2023/01/01 07:28:57;;;;;;;5.32;1.70;;;11.20;99.90;;;;;;5044236;28;20040;-63
2023/01/01 07:31:23;;;;;;;7.97;2.25;;;11.20;99.90;;;;;;5040641;28;20124;-63
2023/01/01 07:33:48;;;;;;;;;;;11.30;99.90;;;;;;5046629;28;20591;-63
2023/01/01 07:36:14;;;;;;;8.50;1.73;;;11.20;99.90;;;;;;5033852;28;19921;-64
2023/01/01 07:38:40;;;;;;;;;;;11.20;99.90;;;;;;5044242;28;20045;-62
2023/01/01 07:41:06;;;;;;;9.07;1.45;;;11.20;99.90;;;;;;5045638;28;20262;-63
2023/01/01 07:43:31;;;;;;;;;;;11.20;99.90;;;;;;5044166;28;20555;-63
2023/01/01 07:45:58;;;;;;;8.95;2.17;;;11.20;99.90;;;;;;5044335;28;19964;-63
2023/01/01 07:48:24;;;;;;;9.18;2.50;;;11.10;99.90;;;;;;5046694;28;20037;-63
2023/01/01 07:50:49;;;;;;;;;;;11.10;99.90;;;;;;5046204;28;20037;-63
2023/01/01 07:53:15;;;;;;;6.05;1.80;;;11.10;99.90;;;;;;5043003;28;20023;-64
2023/01/01 07:55:40;;;;;;;;;;;11.00;99.90;;;;;;5046187;28;20044;-64
2023/01/01 07:58:06;;;;;;;8.82;2.08;;;11.00;99.90;;;;;;5042225;28;19942;-63
2023/01/01 08:00:31;;;;;;;;;;;11.10;99.90;;;;;;5044913;28;20037;-64
2023/01/01 08:02:57;;;;;;;12.50;2.17;;;11.00;99.90;;;;;;5045722;28;19928;-64
2023/01/01 08:05:23;;;;;;;;;;;11.00;99.90;;;;;;5037889;28;20156;-64
2023/01/01 08:07:50;;;;;;;12.55;2.35;;;11.10;99.90;;;;;;5044665;28;19924;-63
2023/01/01 08:10:17;;;;;;;9.20;2.28;;;11.10;99.90;;;;;;5045670;28;20105;-62
2023/01/01 08:12:43;;;;;;;6.03;1.70;;;11.10;99.90;;;;;;5043032;28;20781;-63
2023/01/01 08:15:09;;;;;;;;;;;11.10;99.90;;;;;;5043376;28;20048;-63
2023/01/01 08:17:35;;;;;;;4.70;1.83;;;11.10;99.90;;;;;;5045895;28;19958;-62
2023/01/01 08:20:01;;;;;;;;;;;11.20;99.90;;;;;;5046344;28;20069;-63
2023/01/01 08:22:26;;;;;;;5.13;1.52;;;11.20;99.90;;;;;;5044610;28;19964;-63
2023/01/01 08:24:52;;;;;;;;;;;11.20;99.90;;;;;;5045140;28;21058;-64
2023/01/01 08:27:17;;;;;;;3.72;1.60;;;11.20;99.90;;;;;;5041968;28;19932;-63
2023/01/01 08:29:43;;;;;;;;;;;11.20;99.90;;;;;;5042116;28;20059;-64
2023/01/01 08:32:10;;;;;;;4.63;1.50;;;11.20;99.90;;;;;;5036136;28;19920;-63
2023/01/01 08:34:36;;;;;;;3.42;1.50;;;11.30;99.90;;;;;;5042754;28;20056;-63
2023/01/01 08:37:01;;;;;;;;;;;11.30;99.90;;;;;;5038117;28;20675;-61
2023/01/01 08:39:27;;;;;;;3.78;1.92;;;11.30;99.90;;;;;;5043095;28;19920;-63
2023/01/01 08:41:53;;;;;;;7.68;1.83;;;11.30;99.90;;;;;;5040440;28;20033;-62
2023/01/01 08:44:19;;;;;;;;;;;11.30;99.90;;;;;;5041993;28;20037;-63
2023/01/01 08:46:44;;;;;;;7.07;1.80;;;11.30;99.90;;;;;;5037108;28;19925;-63
2023/01/01 08:49:10;;;;;;;;;;;11.30;99.90;;;;;;5040886;28;20045;-64
2023/01/01 08:51:35;;;;;;;6.97;1.73;;;11.20;99.90;;;;;;5039465;28;19916;-63
2023/01/01 08:54:01;;;;;;;;;;;11.20;99.90;;;;;;5040911;28;20033;-63
2023/01/01 08:56:26;;;;;;;10.02;1.88;;;11.20;99.90;;;;;;5036883;28;19928;-63
2023/01/01 08:58:52;;;;;;;7.30;1.73;;;11.10;99.90;;;;;;5045031;28;20060;-62
2023/01/01 09:01:20;;;;;;;;;;;11.20;99.90;;;;;;5039787;28;20045;-63
2023/01/01 09:03:47;;;;;;;6.68;2.00;;;11.10;99.90;;;;;;5044918;28;20338;-63
2023/01/01 09:06:12;;;;;;;9.63;1.73;;;11.10;99.90;;;;;;5035019;28;20045;-63
2023/01/01 09:08:38;;;;;;;;;;;11.20;99.90;;;;;;5044030;28;20079;-63
2023/01/01 09:11:04;;;;;;;11.15;1.77;;;11.20;99.90;;;;;;5039069;28;19967;-62
2023/01/01 09:13:30;;;;;;;;;;;11.20;99.90;;;;;;5042471;28;20894;-63
2023/01/01 09:15:56;;;;;;;6.85;1.55;;;11.20;99.90;;;;;;5040116;28;19943;-63
2023/01/01 09:18:22;;;;;;;5.10;1.42;;;11.20;99.90;;;;;;5038951;28;20861;-63
2023/01/01 09:20:47;;;;;;;;;;;11.20;99.90;;;;;;5040262;28;20729;-63
2023/01/01 09:23:13;;;;;;;4.00;1.40;;;11.20;99.90;;;;;;5036655;28;19942;-63
2023/01/01 09:25:38;;;;;;;;;;;11.20;99.90;;;;;;5045617;28;20405;-63
2023/01/01 09:28:07;;;;;;;10.95;2.42;;;11.20;99.90;;;;;;5040883;28;19996;-63
2023/01/01 09:30:33;;;;;;;5.03;1.60;;;11.20;99.90;;;;;;5041687;28;20084;-62
2023/01/01 09:33:00;;;;;;;5.75;1.63;;;11.30;99.90;;;;;;5041881;28;20032;-63
2023/01/01 09:35:26;;;;;;;9.85;1.90;;;11.30;99.90;;;;;;5036235;28;20030;-63
2023/01/01 09:37:51;;;;;;;;;;;11.40;99.90;;;;;;5040429;28;20052;-63
2023/01/01 09:40:47;;;;;;;6.13;1.50;;;11.40;99.90;;;;;;5045329;28;19966;-64
2023/01/01 09:43:50;;;;;;;4.60;1.67;;;11.30;99.90;;;;;;5039565;28;20037;-63
2023/01/01 09:46:16;;;;;;;8.18;1.55;;;11.30;99.90;;;;;;5009042;28;20145;-63
2023/01/01 09:48:50;;;;;;;;;;;11.30;99.90;;;;;;5045631;28;20671;-63
2023/01/01 09:51:18;;;;;;;11.00;1.85;;;11.30;99.90;;;;;;5039445;28;19924;-63
2023/01/01 09:53:52;;;;;;;10.27;1.67;;;11.30;99.90;;;;;;5042742;28;20041;-63
2023/01/01 09:56:26;;;;;;;4.30;1.80;;;11.20;99.90;;;;;;5039683;28;20121;-63
2023/01/01 09:58:54;;;;;;;6.68;1.90;;;11.20;99.90;;;;;;5044915;28;20037;-63
2023/01/01 10:01:41;;;;;;;12.00;1.90;;;11.20;99.90;;;;;;5037760;28;20037;-63
2023/01/01 10:04:28;;;;;;;3.75;1.35;;;11.30;99.90;;;;;;5037870;28;20029;-64
2023/01/01 10:07:02;;;;;;;;;;;11.30;99.90;;;;;;5031273;28;20041;-63
2023/01/01 10:09:45;;;;;;;7.07;2.03;;;11.30;99.90;;;;;;5038592;28;20122;-63
2023/01/01 10:12:19;;;;;;;9.43;1.67;;;11.30;99.90;;;;;;5035973;28;20043;-62
2023/01/01 10:14:49;;;;;;;6.43;1.50;;;11.40;99.90;;;;;;5037071;28;20056;-62
2023/01/01 10:17:20;;;;;;;9.27;1.70;;;11.40;99.90;;;;;;5032157;28;20069;-64
2023/01/01 10:19:52;;;;;;;3.17;1.23;;;11.40;99.90;;;;;;5042042;28;20122;-63
2023/01/01 10:22:20;;;;;;;7.38;1.85;;;11.40;99.90;;;;;;5036929;28;20064;-62
2023/01/01 10:24:58;;;;;;;7.22;1.83;;;11.50;99.90;;;;;;5039562;28;20044;-63
2023/01/01 10:27:55;;;;;;;7.22;2.05;;;11.50;99.90;;;;;;5041714;28;20126;-62
2023/01/01 10:30:23;;;;;;;13.68;2.30;;;11.50;99.90;;;;;;5031988;28;20052;-63
2023/01/01 10:32:54;;;;;;;6.70;1.45;;;11.50;99.90;;;;;;5038241;28;20086;-63
2023/01/01 10:35:34;;;;;;;6.28;1.63;;;11.50;99.90;;;;;;5023642;28;20037;-63
2023/01/01 10:38:01;;;;;;;7.20;1.40;;;11.50;99.90;;;;;;5032310;28;20033;-61
2023/01/01 10:40:28;;;;;;;7.22;2.05;;;11.60;99.90;;;;;;5033276;28;20546;-58
2023/01/01 10:42:56;;;;;;;8.20;1.90;;;11.60;99.90;;;;;;5041051;28;20500;-60
2023/01/01 10:45:34;;;;;;;7.28;2.25;;;11.60;99.90;;;;;;5040168;28;20481;-59
2023/01/01 10:48:23;;;;;;;8.23;1.77;;;11.70;99.90;;;;;;5034819;28;20748;-58
2023/01/01 10:51:00;;;;;;;5.90;1.70;;;11.80;99.90;;;;;;5038101;28;20044;-59
2023/01/01 10:53:36;;;;;;;3.88;1.38;;;11.80;99.90;;;;;;5036523;28;20432;-63
2023/01/01 10:56:17;;;;;;;7.47;2.05;;;11.80;99.90;;;;;;5036479;28;20041;-62
2023/01/01 10:58:49;;;;;;;7.53;1.73;;;11.80;99.90;;;;;;5036282;28;20667;-64
2023/01/01 11:01:29;;;;;;;11.90;2.35;;;11.90;99.90;;;;;;5026897;28;20605;-63
2023/01/01 11:04:19;;;;;;;4.88;1.08;;;11.90;99.90;;;;;;5034251;28;20123;-63
2023/01/01 11:06:46;;;;;;;12.52;1.55;;;12.00;99.90;;;;;;5029060;28;20076;-63
2023/01/01 11:09:22;;;;;;;2.22;1.10;;;12.00;99.90;;;;;;5040000;28;20037;-64
2023/01/01 11:12:03;;;;;;;4.93;1.40;;;12.00;99.90;;;;;;5028872;28;20055;-64
2023/01/01 11:14:41;;;;;;;10.05;1.80;;;12.10;99.90;;;;;;5043541;28;20037;-64
2023/01/01 11:17:08;;;;;;;6.95;1.48;;;12.00;99.90;;;;;;5035094;28;20059;-63
2023/01/01 11:19:39;;;;;;;8.93;2.17;;;12.00;99.90;;;;;;5043709;28;20444;-63
2023/01/01 11:22:06;;;;;;;8.45;1.45;;;12.00;99.90;;;;;;5037864;28;20037;-63
2023/01/01 11:24:33;;;;;;;6.15;1.92;;;11.90;99.90;;;;;;5044208;28;20108;-63
2023/01/01 11:27:20;;;;;;;6.13;1.25;;;11.90;99.90;;;;;;5036132;28;20046;-63
2023/01/01 11:29:46;;;;;;;7.57;1.65;;;11.90;99.90;;;;;;5044611;28;20045;-63
2023/01/01 11:32:19;;;;;;;6.78;1.45;;;11.90;99.90;;;;;;5035463;28;20044;-64
2023/01/01 11:34:48;;;;;;;3.63;1.20;;;11.90;99.90;;;;;;5039349;28;20052;-64
2023/01/01 11:37:36;;;;;;;4.10;1.25;;;11.90;99.90;;;;;;5041820;28;20154;-63
2023/01/01 11:40:05;;;;;;;5.85;1.67;;;11.90;99.90;;;;;;5043216;28;20041;-63
2023/01/01 11:42:35;;;;;;;5.28;1.48;;;11.90;99.90;;;;;;5042274;28;20048;-64
2023/01/01 11:45:04;;;;;;;10.75;1.67;;;11.90;99.90;;;;;;5043793;28;20077;-64
2023/01/01 11:47:37;;;;;;;7.32;1.30;;;11.90;99.90;;;;;;5039506;28;20044;-64
2023/01/01 11:50:04;;;;;;;3.85;1.20;;;11.90;99.90;;;;;;5042929;28;20167;-63
2023/01/01 11:52:42;;;;;;;7.95;2.15;;;11.90;99.90;;;;;;5038087;28;20041;-64
2023/01/01 11:55:36;;;;;;;8.48;1.73;;;11.80;99.90;;;;;;5042019;28;20048;-64
2023/01/01 11:58:40;;;;;;;3.13;1.00;;;11.80;99.90;;;;;;5042734;28;20114;-63
2023/01/01 12:01:18;;;;;;;4.30;1.00;;;11.80;99.90;;;;;;5005321;28;20129;-63
2023/01/01 12:03:53;;;;;;;9.45;1.48;;;11.90;99.90;;;;;;5033984;28;20135;-64
2023/01/01 12:06:22;;;;;;;5.32;1.25;;;11.80;99.90;;;;;;5033568;28;20054;-63
2023/01/01 12:09:13;;;;;;;5.10;1.38;;;11.80;99.90;;;;;;5040115;28;20043;-63
2023/01/01 12:11:54;;;;;;;7.85;1.58;;;11.80;99.90;;;;;;5035825;28;20041;-64
2023/01/01 12:14:30;;;;;;;6.18;1.50;;;11.70;99.90;;;;;;5041409;28;20041;-64
2023/01/01 12:17:19;;;;;;;9.82;1.75;;;11.70;99.90;;;;;;5034801;28;20680;-62
2023/01/01 12:20:20;;;;;;;7.20;1.35;;;11.70;99.90;;;;;;5045467;28;20037;-59
2023/01/01 12:22:46;;;;;;;6.70;1.42;;;11.60;99.90;;;;;;5041311;28;20033;-63
2023/01/01 12:25:17;;;;;;;6.10;1.70;;;11.60;99.90;;;;;;5043014;28;20045;-62
2023/01/01 12:28:06;;;;;;;5.03;1.60;;;11.60;99.90;;;;;;5041288;28;20041;-62
2023/01/01 12:30:51;;;;;;;11.38;1.58;;;11.60;99.90;;;;;;5041809;28;20045;-62
2023/01/01 12:33:45;;;;;;;9.18;1.90;;;11.60;99.90;;;;;;5042733;28;20044;-62
2023/01/01 12:36:51;;;;;;;5.47;1.33;;;11.50;99.90;;;;;;5038537;28;20037;-63
2023/01/01 12:39:44;;;;;;;6.60;1.20;;;11.50;99.90;;;;;;5043377;28;20649;-63
2023/01/01 12:42:21;;;;;;;5.45;1.58;;;11.50;99.90;;;;;;5038048;28;20110;-63
2023/01/01 12:44:53;;;;;;;8.45;2.03;;;11.50;99.90;;;;;;5037376;28;20126;-61
2023/01/01 12:47:47;;;;;;;8.65;2.47;;;11.50;99.90;;;;;;5039051;28;20066;-62
2023/01/01 12:50:45;;;;;;;4.57;1.20;;;11.60;99.90;;;;;;5032799;28;20037;-63
2023/01/01 12:53:38;;;;;;;7.18;1.88;;;11.60;99.90;;;;;;5016483;28;20103;-64
2023/01/01 12:56:06;;;;;;;3.75;1.30;;;11.60;99.90;;;;;;5044005;28;20056;-61
2023/01/01 12:58:53;;;;;;;5.88;1.75;;;11.60;99.90;;;;;;5038527;28;20076;-61
2023/01/01 13:01:21;;;;;;;4.75;1.33;;;11.60;99.90;;;;;;5042550;28;20037;-63
2023/01/01 13:03:49;;;;;;;5.15;1.42;;;11.60;99.90;;;;;;5031622;28;20505;-63
2023/01/01 13:06:20;;;;;;;6.10;1.80;;;11.60;99.90;;;;;;5034432;28;20056;-63
2023/01/01 13:08:51;;;;;;;6.70;1.98;;;11.60;99.90;;;;;;5039684;28;20048;-63
2023/01/01 13:11:18;;;;;;;10.18;1.77;;;11.70;99.90;;;;;;5040787;28;20060;-64
2023/01/01 13:13:43;;;;;;;8.93;1.48;;;11.60;99.90;;;;;;5041954;28;20037;-64
2023/01/01 13:16:10;;;;;;;;;;;11.70;99.90;;;;;;5028203;28;20593;-63
2023/01/01 13:18:37;;;;;;;6.10;1.30;;;11.70;99.90;;;;;;5045509;28;19967;-63
2023/01/01 13:21:20;;;;;;;4.38;1.38;;;11.70;99.90;;;;;;5041875;28;20080;-64
2023/01/01 13:23:48;;;;;;;5.35;1.55;;;11.60;99.90;;;;;;5045258;28;20566;-63
2023/01/01 13:26:16;;;;;;;8.20;1.25;;;11.60;99.90;;;;;;5041247;28;20046;-64